Time;durP1;ratioP1;P1;durP2;ratioP2;P2;SDS_P1;SDS_P2;PMS_P1;PMS_P2;Temp;Humidity;BMP_temperature;BMP_pressure;BME280_temperature;BME280_humidity;BME280_pressure;Samples;Min_cycle;Max_cycle;Signal;HPM_P1;HPM_P2
2022/01/13 00:01:03;;;;;;;70.70;34.20;;;;;;;-2.52;90.38;100772.98;105226;1271;61445;-79
2022/01/13 00:03:30;;;;;;;61.10;33.40;;;;;;;-2.50;90.56;100774.05;105231;1271;61803;-77
2022/01/13 00:05:56;;;;;;;71.20;36.90;;;;;;;-2.49;90.66;100775.98;104936;1271;75769;-76
2022/01/13 00:08:23;;;;;;;58.30;32.70;;;;;;;-2.46;90.97;100774.30;105232;1271;61393;-76
2022/01/13 00:10:50;;;;;;;65.80;32.70;;;;;;;-2.43;91.21;100772.40;105196;1271;73656;-76
2022/01/13 00:13:23;;;;;;;63.50;33.70;;;;;;;-2.42;91.43;100771.73;105187;1271;61179;-78
2022/01/13 00:16:11;;;;;;;62.30;30.30;;;;;;;-2.40;91.56;100767.40;104956;1271;61995;-76
2022/01/13 00:18:49;;;;;;;61.00;31.10;;;;;;;-2.37;91.79;100771.45;105260;1271;74885;-76
2022/01/13 00:23:52;;;;;;;61.40;33.10;;;;;;;-2.32;92.21;100755.50;105189;1271;73255;-77
2022/01/13 00:26:22;;;;;;;58.20;28.90;;;;;;;-2.30;92.41;100755.02;105238;1271;61339;-78
2022/01/13 00:28:52;;;;;;;57.30;28.40;;;;;;;-2.29;92.77;100759.39;105198;1271;61381;-77
2022/01/13 00:31:25;;;;;;;57.80;31.00;;;;;;;-2.28;93.07;100766.88;105253;1271;76001;-78
2022/01/13 00:33:54;;;;;;;50.40;26.00;;;;;;;-2.26;93.49;100762.20;105357;1271;69716;-77
2022/01/13 00:36:26;;;;;;;52.80;26.80;;;;;;;-2.26;93.87;100761.34;105202;1271;73179;-78
2022/01/13 00:38:53;;;;;;;54.10;28.70;;;;;;;-2.25;94.18;100765.87;105194;1271;61316;-78
2022/01/13 00:41:21;;;;;;;62.90;31.60;;;;;;;-2.25;94.19;100764.83;105255;1271;61805;-77
2022/01/13 00:43:48;;;;;;;53.20;27.70;;;;;;;-2.24;94.40;100770.27;105213;1271;75409;-78
2022/01/13 00:46:22;;;;;;;53.90;28.80;;;;;;;-2.23;94.59;100772.35;105232;1271;70264;-74
2022/01/13 00:48:51;;;;;;;57.40;31.60;;;;;;;-2.22;94.75;100776.88;105342;1271;74431;-75
2022/01/13 00:51:19;;;;;;;49.70;29.30;;;;;;;-2.20;94.95;100777.42;105183;1271;61365;-76
2022/01/13 00:53:45;;;;;;;57.60;30.10;;;;;;;-2.19;95.29;100780.74;105259;1271;61857;-75
2022/01/13 00:56:12;;;;;;;55.40;29.80;;;;;;;-2.20;95.27;100782.83;105212;1271;75208;-76
2022/01/13 00:58:39;;;;;;;49.00;28.20;;;;;;;-2.19;95.59;100788.95;105259;1271;69191;-76
2022/01/13 01:01:06;;;;;;;54.50;28.30;;;;;;;-2.19;95.55;100798.33;105237;1271;73410;-76
2022/01/13 01:03:35;;;;;;;54.00;30.70;;;;;;;-2.20;95.87;100799.89;105228;1271;61259;-76
2022/01/13 01:06:03;;;;;;;49.70;27.90;;;;;;;-2.19;96.06;100801.64;103045;1271;1016658;-78
2022/01/13 01:08:33;;;;;;;58.50;32.40;;;;;;;-2.19;96.12;100805.30;105239;1271;75309;-76
2022/01/13 01:11:02;;;;;;;53.60;28.60;;;;;;;-2.19;96.21;100810.53;104967;1271;245676;-75
2022/01/13 01:13:32;;;;;;;51.00;29.10;;;;;;;-2.17;96.48;100808.46;105196;1271;73811;-76
2022/01/13 01:16:04;;;;;;;58.30;31.50;;;;;;;-2.16;96.65;100800.98;105355;1271;61268;-77
2022/01/13 01:23:36;;;;;;;53.90;29.80;;;;;;;-2.13;97.24;100817.73;105340;1271;69398;-78
2022/01/13 01:26:09;;;;;;;53.10;28.50;;;;;;;-2.13;97.11;100830.64;105302;1271;74474;-75
2022/01/13 01:28:44;;;;;;;51.00;28.50;;;;;;;-2.13;97.27;100827.34;105251;1271;61359;-75
2022/01/13 01:31:12;;;;;;;42.70;23.20;;;;;;;-2.12;97.46;100838.49;105214;1271;61597;-77
2022/01/13 01:33:44;;;;;;;47.70;26.70;;;;;;;-2.11;97.89;100842.14;105216;1271;75117;-77
2022/01/13 01:36:13;;;;;;;47.00;27.60;;;;;;;-2.12;97.81;100836.39;104963;1271;69358;-76
2022/01/13 01:38:43;;;;;;;53.00;28.00;;;;;;;-2.13;97.92;100843.16;105218;1271;73163;-75
2022/01/13 01:41:10;;;;;;;49.60;29.70;;;;;;;-2.13;98.23;100845.79;105223;1271;61621;-76
2022/01/13 01:43:37;;;;;;;51.00;29.90;;;;;;;-2.14;98.35;100838.27;104922;1271;62347;-77
2022/01/13 01:46:03;;;;;;;62.50;33.50;;;;;;;-2.14;98.30;100822.61;104966;1271;75704;-76
2022/01/13 01:48:34;;;;;;;57.50;32.50;;;;;;;-2.14;98.33;100816.33;105242;1271;69219;-76
2022/01/13 01:51:04;;;;;;;53.00;31.40;;;;;;;-2.13;98.39;100809.92;105199;1270;73308;-76
2022/01/13 01:53:31;;;;;;;58.70;30.70;;;;;;;-2.13;98.45;100805.23;105348;1270;61318;-76
2022/01/13 01:55:57;;;;;;;60.20;33.60;;;;;;;-2.12;98.40;100800.88;105214;1271;62253;-76
2022/01/13 01:58:28;;;;;;;58.40;31.40;;;;;;;-2.11;98.58;100812.90;105183;1271;61208;-78
2022/01/13 02:00:55;;;;;;;56.00;30.10;;;;;;;-2.10;98.67;100822.67;105164;1271;69185;-77
2022/01/13 02:03:24;;;;;;;52.70;28.70;;;;;;;-2.09;98.87;100823.73;105214;1271;73959;-76
2022/01/13 02:05:51;;;;;;;54.20;31.60;;;;;;;-2.08;98.85;100816.60;105334;1271;61250;-76
2022/01/13 02:08:17;;;;;;;52.60;29.90;;;;;;;-2.07;99.11;100796.59;105261;1271;61149;-76
2022/01/13 02:10:45;;;;;;;54.80;30.80;;;;;;;-2.08;99.14;100778.98;105186;1270;76097;-78
2022/01/13 02:13:18;;;;;;;60.00;34.20;;;;;;;-2.07;99.30;100778.13;105211;1271;69225;-76
2022/01/13 02:16:00;;;;;;;53.90;32.30;;;;;;;-2.07;99.34;100787.19;105345;1271;72833;-77
2022/01/13 02:18:32;;;;;;;58.20;32.70;;;;;;;-2.05;99.74;100792.09;105130;1271;61304;-75
2022/01/13 02:21:00;;;;;;;53.30;28.20;;;;;;;-2.05;99.70;100786.51;105417;1271;61990;-78
2022/01/13 02:23:45;;;;;;;53.70;31.10;;;;;;;-2.04;99.92;100784.61;105392;1270;75151;-76
2022/01/13 02:26:12;;;;;;;53.40;28.80;;;;;;;-2.05;99.97;100802.02;105224;1271;69057;-76
2022/01/13 02:28:39;;;;;;;52.30;31.30;;;;;;;-2.04;99.97;100804.11;105122;1271;73330;-76
2022/01/13 02:31:06;;;;;;;58.60;31.60;;;;;;;-2.03;100.00;100814.23;105007;1271;61463;-77
2022/01/13 02:33:35;;;;;;;55.70;32.30;;;;;;;-2.02;100.00;100833.57;105314;1271;61276;-76
2022/01/13 02:36:03;;;;;;;51.40;31.00;;;;;;;-2.01;100.00;100838.81;105201;1271;75364;-77
2022/01/13 02:38:30;;;;;;;53.30;29.90;;;;;;;-2.01;100.00;100819.32;105251;1271;68578;-76
2022/01/13 02:40:59;;;;;;;54.00;31.70;;;;;;;-2.00;100.00;100793.02;105233;1271;74034;-76
2022/01/13 02:43:30;;;;;;;53.40;33.80;;;;;;;-1.99;100.00;100770.23;105166;1271;61527;-77
2022/01/13 02:46:18;;;;;;;55.40;30.60;;;;;;;-1.98;100.00;100748.63;105211;1271;61285;-77
2022/01/13 02:48:46;;;;;;;53.90;30.60;;;;;;;-1.96;100.00;100748.13;105128;1271;75114;-77
2022/01/13 02:51:12;;;;;;;58.10;33.90;;;;;;;-1.95;100.00;100744.48;104938;1271;70177;-75
2022/01/13 02:53:39;;;;;;;57.30;33.80;;;;;;;-1.93;100.00;100745.90;105242;1271;61291;-76
2022/01/13 02:56:06;;;;;;;58.40;32.00;;;;;;;-1.92;100.00;100743.66;105237;1271;61380;-77
2022/01/13 02:58:34;;;;;;;56.80;33.10;;;;;;;-1.92;100.00;100747.31;105252;1271;61262;-75
2022/01/13 03:01:03;;;;;;;59.30;33.80;;;;;;;-1.91;100.00;100748.54;105233;1270;76221;-78
2022/01/13 03:03:31;;;;;;;58.80;36.10;;;;;;;-1.90;100.00;100746.11;105448;1270;70405;-75
2022/01/13 03:06:04;;;;;;;58.00;34.30;;;;;;;-1.91;100.00;100752.91;105575;1271;73378;-77
2022/01/13 03:08:30;;;;;;;48.50;28.30;;;;;;;-1.90;100.00;100772.41;105920;1271;61332;-78
2022/01/13 03:10:57;;;;;;;59.00;33.20;;;;;;;-1.90;100.00;100782.69;106168;1271;61217;-77
2022/01/13 03:13:24;;;;;;;54.50;31.10;;;;;;;-1.89;100.00;100792.64;106009;1271;75157;-77
2022/01/13 03:15:51;;;;;;;51.40;30.30;;;;;;;-1.88;100.00;100786.90;105870;1271;67448;-76
2022/01/13 03:18:17;;;;;;;49.90;30.10;;;;;;;-1.87;100.00;100781.15;106581;1271;73202;-76
2022/01/13 03:20:44;;;;;;;55.20;33.70;;;;;;;-1.87;100.00;100777.00;108181;1271;61246;-77
2022/01/13 03:23:15;;;;;;;57.30;33.20;;;;;;;-1.84;100.00;100768.83;108155;1271;58902;-77
2022/01/13 03:25:45;;;;;;;52.90;32.50;;;;;;;-1.83;100.00;100769.89;108131;1271;75256;-77
2022/01/13 03:28:18;;;;;;;52.00;31.80;;;;;;;-1.82;100.00;100769.55;106857;1271;69185;-76
2022/01/13 03:30:45;;;;;;;54.40;33.00;;;;;;;-1.79;100.00;100762.27;105632;1271;74628;-76
2022/01/13 03:33:13;;;;;;;53.00;32.60;;;;;;;-1.76;100.00;100761.09;105193;1271;61278;-78
2022/01/13 03:35:42;;;;;;;50.40;30.60;;;;;;;-1.74;100.00;100762.14;105406;1271;61270;-79
2022/01/13 03:38:09;;;;;;;51.70;28.50;;;;;;;-1.73;100.00;100761.30;105340;1271;75338;-76
2022/01/13 03:40:36;;;;;;;57.50;31.70;;;;;;;-1.71;100.00;100756.77;105255;1271;70376;-77
2022/01/13 03:43:04;;;;;;;53.80;33.00;;;;;;;-1.71;100.00;100746.86;104971;1271;74551;-76
2022/01/13 03:45:32;;;;;;;58.40;33.10;;;;;;;-1.70;100.00;100742.52;105229;1271;61361;-78
2022/01/13 03:48:00;;;;;;;57.80;33.70;;;;;;;-1.68;100.00;100737.83;105361;1271;61253;-75
2022/01/13 03:50:27;;;;;;;56.70;32.70;;;;;;;-1.67;100.00;100739.75;105181;1271;76414;-77
2022/01/13 03:53:03;;;;;;;59.20;31.40;;;;;;;-1.66;100.00;100740.46;105188;1271;69063;-76
2022/01/13 03:55:36;;;;;;;47.70;29.80;;;;;;;-1.65;100.00;100749.89;105226;1271;74190;-76
2022/01/13 03:58:57;;;;;;;50.30;31.00;;;;;;;-1.63;100.00;100751.48;104466;1271;1002952;-77
2022/01/13 04:01:58;;;;;;;50.10;30.40;;;;;;;-1.62;100.00;100755.14;105222;1271;61790;-76
2022/01/13 04:04:25;;;;;;;49.90;27.70;;;;;;;-1.61;100.00;100747.30;105217;1271;75097;-76
2022/01/13 04:07:07;;;;;;;45.10;29.50;;;;;;;-1.61;100.00;100748.72;105236;1271;69535;-76
2022/01/13 04:09:34;;;;;;;48.00;28.70;;;;;;;-1.58;100.00;100754.84;105200;1271;74491;-77
2022/01/13 04:12:04;;;;;;;49.00;29.10;;;;;;;-1.57;100.00;100762.86;105194;1271;61263;-77
2022/01/13 04:14:42;;;;;;;52.20;30.60;;;;;;;-1.55;100.00;100765.67;105203;1271;61193;-76
2022/01/13 04:17:10;;;;;;;51.10;30.20;;;;;;;-1.53;100.00;100762.38;105178;1271;73388;-77
2022/01/13 04:19:37;;;;;;;43.30;27.20;;;;;;;-1.51;100.00;100756.83;105230;1271;69177;-77
2022/01/13 04:22:05;;;;;;;49.30;29.40;;;;;;;-1.50;100.00;100756.33;105142;1271;73324;-75
2022/01/13 04:24:33;;;;;;;52.70;29.50;;;;;;;-1.48;100.00;100753.38;105207;1271;61374;-76
2022/01/13 04:26:59;;;;;;;49.70;27.80;;;;;;;-1.46;100.00;100761.94;105228;1271;61425;-77
2022/01/13 04:29:41;;;;;;;48.70;31.40;;;;;;;-1.45;100.00;100764.91;105167;1271;74170;-77
2022/01/13 04:32:08;;;;;;;48.60;29.10;;;;;;;-1.43;100.00;100762.49;105316;1271;70036;-76
2022/01/13 04:34:34;;;;;;;54.50;33.30;;;;;;;-1.41;100.00;100759.03;105100;1271;61172;-78
2022/01/13 04:37:01;;;;;;;55.30;32.80;;;;;;;-1.39;100.00;100756.42;105204;1271;61273;-76
2022/01/13 04:39:32;;;;;;;47.60;28.60;;;;;;;-1.37;100.00;100756.09;105115;1271;62027;-77
2022/01/13 04:41:59;;;;;;;49.80;30.30;;;;;;;-1.37;100.00;100745.48;105102;1274;75323;-77
2022/01/13 04:44:26;;;;;;;56.30;31.10;;;;;;;-1.34;100.00;100740.80;105179;1271;69869;-76
2022/01/13 04:46:54;;;;;;;49.00;32.50;;;;;;;-1.31;100.00;100742.56;105217;1271;74138;-77
2022/01/13 04:49:22;;;;;;;51.90;29.20;;;;;;;-1.28;100.00;100745.55;105201;1271;61416;-76
2022/01/13 04:51:50;;;;;;;47.00;28.20;;;;;;;-1.27;100.00;100749.91;105239;1271;61921;-77
2022/01/13 04:54:17;;;;;;;50.50;31.50;;;;;;;-1.25;100.00;100739.98;105128;1271;76772;-76
2022/01/13 04:57:04;;;;;;;42.80;25.90;;;;;;;-1.23;100.00;100733.21;105186;1271;68202;-78
2022/01/13 04:59:31;;;;;;;62.90;34.40;;;;;;;-1.21;100.00;100738.46;105178;1271;74309;-77
2022/01/13 05:02:00;;;;;;;55.30;30.90;;;;;;;-1.19;100.00;100737.95;105207;1271;61304;-76
2022/01/13 05:04:26;;;;;;;50.40;29.50;;;;;;;-1.17;100.00;100736.23;105167;1271;61553;-77
2022/01/13 05:06:53;;;;;;;50.70;29.00;;;;;;;-1.14;100.00;100734.16;105202;1271;75670;-76
2022/01/13 05:09:20;;;;;;;52.60;30.00;;;;;;;-1.13;100.00;100728.42;105147;1271;69860;-76
2022/01/13 05:11:46;;;;;;;52.40;27.60;;;;;;;-1.11;100.00;100731.40;104983;1271;61269;-77
2022/01/13 05:14:13;;;;;;;52.60;29.70;;;;;;;-1.09;100.00;100731.59;105143;1271;61390;-77
2022/01/13 05:19:24;;;;;;;47.80;28.20;;;;;;;-1.06;100.00;100734.40;105223;1271;75278;-77
2022/01/13 05:24:26;;;;;;;45.30;26.80;;;;;;;-1.02;100.00;100746.99;105184;1271;74354;-77
2022/01/13 05:26:53;;;;;;;46.30;28.00;;;;;;;-1.01;100.00;100741.95;105225;1271;61464;-76
2022/01/13 05:29:20;;;;;;;44.50;27.20;;;;;;;-0.99;100.00;100738.82;105232;1271;61256;-76
2022/01/13 05:31:49;;;;;;;43.60;27.20;;;;;;;-0.97;100.00;100733.26;105204;1271;75311;-77
2022/01/13 05:34:17;;;;;;;45.90;26.30;;;;;;;-0.95;100.00;100738.69;105304;1271;69883;-75
2022/01/13 05:36:44;;;;;;;46.80;27.50;;;;;;;-0.93;100.00;100736.44;105375;1271;72600;-77
2022/01/13 05:39:11;;;;;;;45.60;27.00;;;;;;;-0.91;100.00;100736.97;105166;1271;61292;-76
2022/01/13 05:41:38;;;;;;;42.80;26.70;;;;;;;-0.89;100.00;100735.94;105261;1271;61916;-77
2022/01/13 05:44:05;;;;;;;47.40;26.40;;;;;;;-0.87;100.00;100739.45;105223;1271;74656;-77
2022/01/13 05:46:32;;;;;;;47.90;27.30;;;;;;;-0.85;100.00;100735.45;104937;1271;69441;-77
2022/01/13 05:48:58;;;;;;;42.30;26.70;;;;;;;-0.84;100.00;100732.66;105179;1271;74254;-76
2022/01/13 05:51:25;;;;;;;41.50;24.20;;;;;;;-0.83;100.00;100731.09;105208;1271;61263;-77
2022/01/13 05:53:52;;;;;;;49.00;28.60;;;;;;;-0.83;100.00;100730.06;105216;1271;61241;-78
2022/01/13 05:56:18;;;;;;;44.10;27.30;;;;;;;-0.82;100.00;100731.80;105210;1271;76870;-77
2022/01/13 05:58:45;;;;;;;41.70;26.00;;;;;;;-0.81;100.00;100729.19;105156;1271;61382;-77
2022/01/13 06:01:11;;;;;;;45.00;26.10;;;;;;;-0.81;100.00;100722.91;105194;1271;74165;-76
2022/01/13 06:03:38;;;;;;;41.90;24.50;;;;;;;-0.81;100.00;100724.48;105197;1271;61298;-77
2022/01/13 06:06:04;;;;;;;42.80;25.10;;;;;;;-0.81;100.00;100724.30;105192;1271;61352;-76
2022/01/13 06:08:31;;;;;;;39.90;25.20;;;;;;;-0.81;100.00;100726.74;105178;1271;61313;-78
2022/01/13 06:10:57;;;;;;;44.30;26.30;;;;;;;-0.81;100.00;100723.27;105161;1271;68123;-77
2022/01/13 06:13:24;;;;;;;43.30;27.60;;;;;;;-0.82;100.00;100721.15;105229;1271;61307;-75
2022/01/13 06:15:50;;;;;;;39.80;24.10;;;;;;;-0.82;100.00;100715.40;105243;1271;61295;-76
2022/01/13 06:18:17;;;;;;;45.40;25.10;;;;;;;-0.81;100.00;100704.59;105239;1271;61345;-78
2022/01/13 06:20:43;;;;;;;42.90;25.90;;;;;;;-0.81;100.00;100705.27;105192;1271;75154;-78
2022/01/13 06:23:11;;;;;;;39.10;25.50;;;;;;;-0.82;100.00;100708.77;105156;1270;69580;-77
2022/01/13 06:25:38;;;;;;;46.20;26.80;;;;;;;-0.82;100.00;100709.99;105216;1269;73179;-77
2022/01/13 06:28:06;;;;;;;48.90;28.00;;;;;;;-0.82;100.00;100712.25;105210;1271;61379;-77
2022/01/13 06:30:33;;;;;;;41.70;22.20;;;;;;;-0.81;100.00;100718.20;105043;1271;61449;-77
2022/01/13 06:33:01;;;;;;;43.20;27.20;;;;;;;-0.81;100.00;100715.77;105194;1271;76596;-76
2022/01/13 06:35:27;;;;;;;47.00;27.90;;;;;;;-0.80;100.00;100716.29;105282;1271;69576;-78
2022/01/13 06:37:54;;;;;;;42.30;25.90;;;;;;;-0.79;100.00;100721.88;105292;1271;73974;-76
2022/01/13 06:40:20;;;;;;;40.90;25.80;;;;;;;-0.78;100.00;100723.28;105212;1271;61176;-78
2022/01/13 06:42:47;;;;;;;42.90;26.40;;;;;;;-0.78;100.00;100726.07;105201;1271;61272;-76
2022/01/13 06:45:14;;;;;;;44.50;25.60;;;;;;;-0.77;100.00;100722.95;104943;1271;75141;-77
2022/01/13 06:47:42;;;;;;;47.10;27.30;;;;;;;-0.75;100.00;100724.70;105208;1271;61279;-79
2022/01/13 06:50:11;;;;;;;45.10;27.80;;;;;;;-0.73;100.00;100725.93;105266;1271;73703;-77
2022/01/13 06:52:38;;;;;;;49.90;29.30;;;;;;;-0.72;100.00;100730.65;105224;1271;61295;-78
2022/01/13 06:55:06;;;;;;;47.50;28.90;;;;;;;-0.71;100.00;100733.98;105267;1271;61353;-78
2022/01/13 06:57:33;;;;;;;41.70;25.90;;;;;;;-0.69;100.00;100730.49;104948;1271;76269;-80
2022/01/13 07:00:01;;;;;;;55.40;27.30;;;;;;;-0.68;100.00;100736.95;105217;1271;70353;-78
2022/01/13 07:02:29;;;;;;;53.50;29.40;;;;;;;-0.67;100.00;100737.67;105220;1271;73903;-78
2022/01/13 07:04:56;;;;;;;55.30;32.90;;;;;;;-0.65;100.00;100740.48;105249;1271;61300;-78
2022/01/13 07:07:24;;;;;;;59.00;34.40;;;;;;;-0.64;100.00;100742.56;105216;1271;61282;-79
2022/01/13 07:09:50;;;;;;;49.70;29.50;;;;;;;-0.62;100.00;100744.52;105086;1272;76265;-75
2022/01/13 07:12:17;;;;;;;53.60;29.90;;;;;;;-0.61;100.00;100746.61;105232;1271;69345;-78
2022/01/13 07:14:43;;;;;;;49.80;30.00;;;;;;;-0.60;100.00;100754.13;105172;1271;74263;-75
2022/01/13 07:17:10;;;;;;;55.20;32.00;;;;;;;-0.58;100.00;100754.14;105209;1271;61354;-77
2022/01/13 07:19:39;;;;;;;60.70;37.30;;;;;;;-0.55;100.00;100745.77;105191;1271;61481;-76
2022/01/13 07:22:06;;;;;;;51.10;30.70;;;;;;;-0.52;100.00;100736.71;105202;1271;75440;-77
2022/01/13 07:24:32;;;;;;;49.40;32.70;;;;;;;-0.50;100.00;100723.64;105144;1271;69685;-77
2022/01/13 07:26:59;;;;;;;52.90;29.50;;;;;;;-0.48;100.00;100715.10;105243;1271;74014;-76
2022/01/13 07:29:25;;;;;;;46.40;29.20;;;;;;;-0.44;100.00;100715.81;105217;1271;61271;-77
2022/01/13 07:31:52;;;;;;;50.70;30.30;;;;;;;-0.41;100.00;100722.11;105204;1271;61261;-76
2022/01/13 07:34:21;;;;;;;52.80;33.40;;;;;;;-0.37;100.00;100723.71;105207;1271;75011;-78
2022/01/13 07:36:48;;;;;;;45.20;26.90;;;;;;;-0.33;100.00;100723.20;105243;1271;70400;-77
2022/01/13 07:39:14;;;;;;;42.50;26.30;;;;;;;-0.31;100.00;100719.73;105283;1271;73737;-78
2022/01/13 07:41:42;;;;;;;46.20;26.40;;;;;;;-0.28;100.00;100714.33;105210;1271;61265;-77
2022/01/13 07:44:09;;;;;;;42.50;25.00;;;;;;;-0.24;100.00;100711.20;105220;1271;61288;-80
2022/01/13 07:46:36;;;;;;;45.90;27.00;;;;;;;-0.20;100.00;100709.64;104970;1271;74821;-77
2022/01/13 07:49:02;;;;;;;47.20;28.80;;;;;;;-0.16;100.00;100705.48;105005;1274;70294;-76
2022/01/13 07:51:29;;;;;;;65.80;38.10;;;;;;;-0.12;100.00;100707.40;105188;1271;73447;-82
2022/01/13 07:53:56;;;;;;;52.40;31.30;;;;;;;-0.07;100.00;100702.36;105220;1271;61461;-81
2022/01/13 07:56:23;;;;;;;47.10;28.80;;;;;;;-0.04;100.00;100701.68;105247;1271;61303;-78
2022/01/13 07:58:50;;;;;;;47.80;31.00;;;;;;;-0.01;100.00;100696.79;105216;1271;75290;-79
2022/01/13 08:01:16;;;;;;;46.30;29.30;;;;;;;0.01;100.00;100688.94;105279;1271;69183;-77
2022/01/13 08:03:43;;;;;;;48.50;29.90;;;;;;;0.04;100.00;100690.17;105289;1271;74464;-77
2022/01/13 08:06:09;;;;;;;47.10;27.20;;;;;;;0.09;100.00;100678.83;105631;1271;61259;-76
2022/01/13 08:08:36;;;;;;;46.90;28.10;;;;;;;0.13;100.00;100668.52;105732;1271;61278;-77
2022/01/13 08:11:03;;;;;;;46.80;29.40;;;;;;;0.18;100.00;100665.23;105111;1271;75058;-76
2022/01/13 08:13:30;;;;;;;48.00;28.90;;;;;;;0.20;100.00;100660.84;105182;1271;68947;-77
2022/01/13 08:16:03;;;;;;;46.10;28.30;;;;;;;0.22;100.00;100658.05;105253;1271;72703;-78
2022/01/13 08:21:14;;;;;;;48.50;27.50;;;;;;;0.31;100.00;100642.34;105240;1271;61307;-75
2022/01/13 08:23:41;;;;;;;47.60;27.50;;;;;;;0.36;100.00;100639.20;105238;1271;76426;-77
2022/01/13 08:26:08;;;;;;;44.30;26.40;;;;;;;0.40;100.00;100635.71;105047;1271;61338;-78
2022/01/13 08:28:35;;;;;;;42.60;25.80;;;;;;;0.45;99.76;100625.39;105270;1271;73603;-77
2022/01/13 08:31:03;;;;;;;43.40;26.30;;;;;;;0.48;99.61;100617.70;105263;1271;61311;-77
2022/01/13 08:33:30;;;;;;;50.00;27.70;;;;;;;0.54;99.49;100620.50;105396;1269;61154;-77
2022/01/13 08:35:57;;;;;;;38.30;22.70;;;;;;;0.57;99.16;100618.40;105217;1271;76364;-77
2022/01/13 08:38:24;;;;;;;42.00;25.70;;;;;;;0.59;98.67;100619.09;105228;1271;61345;-76
2022/01/13 08:40:56;;;;;;;41.70;25.00;;;;;;;0.60;98.69;100637.63;105224;1271;73224;-79
2022/01/13 08:43:25;;;;;;;41.10;25.20;;;;;;;0.61;98.54;100655.48;104995;1271;61413;-78
2022/01/13 08:45:52;;;;;;;46.30;25.60;;;;;;;0.63;98.71;100648.49;105285;1271;61315;-77
2022/01/13 08:48:20;;;;;;;44.20;26.20;;;;;;;0.68;98.33;100655.48;105191;1271;75084;-79
2022/01/13 08:50:47;;;;;;;37.70;23.80;;;;;;;0.71;98.20;100657.92;105235;1271;69479;-80
2022/01/13 08:53:15;;;;;;;40.50;25.10;;;;;;;0.75;97.95;100654.25;105246;1271;73583;-78
2022/01/13 08:55:42;;;;;;;42.50;25.50;;;;;;;0.82;97.98;100648.99;105240;1271;61360;-76
2022/01/13 08:58:08;;;;;;;38.80;24.80;;;;;;;0.89;97.79;100646.73;105232;1271;61962;-77
2022/01/13 09:00:37;;;;;;;38.20;23.60;;;;;;;0.96;97.37;100647.23;105224;1271;76331;-79
2022/01/13 09:03:07;;;;;;;40.10;24.00;;;;;;;0.98;96.86;100642.33;105302;1271;69022;-77
2022/01/13 09:05:36;;;;;;;36.70;23.00;;;;;;;1.03;97.12;100640.93;105284;1271;73187;-77
2022/01/13 09:08:07;;;;;;;36.50;22.10;;;;;;;1.11;96.92;100647.92;105321;1271;61315;-79
2022/01/13 09:10:33;;;;;;;36.40;21.90;;;;;;;1.16;96.60;100644.94;105231;1271;61591;-81
2022/01/13 09:13:01;;;;;;;37.00;22.90;;;;;;;1.21;96.56;100639.49;105597;1271;74892;-81
2022/01/13 09:15:41;;;;;;;35.70;22.10;;;;;;;1.27;96.10;100634.94;105547;1271;69364;-76
2022/01/13 09:18:11;;;;;;;33.30;21.20;;;;;;;1.30;95.73;100639.98;105336;1271;73331;-78
2022/01/13 09:20:39;;;;;;;33.40;20.90;;;;;;;1.32;95.46;100641.23;105711;1271;60122;-79
2022/01/13 09:23:05;;;;;;;36.50;23.20;;;;;;;1.32;94.92;100645.08;105353;1271;61811;-77
2022/01/13 09:25:33;;;;;;;37.00;21.10;;;;;;;1.31;95.06;100641.20;105365;1271;76070;-74
2022/01/13 09:28:00;;;;;;;33.90;21.20;;;;;;;1.33;95.19;100633.69;105193;1271;68941;-74
2022/01/13 09:30:27;;;;;;;37.70;22.70;;;;;;;1.36;94.96;100628.60;105367;1271;74382;-80
2022/01/13 09:32:54;;;;;;;37.80;21.70;;;;;;;1.44;95.04;100629.61;105362;1271;61406;-76
2022/01/13 09:35:21;;;;;;;31.50;20.30;;;;;;;1.53;94.73;100626.27;105331;1271;61809;-76
2022/01/13 09:37:48;;;;;;;35.80;19.50;;;;;;;1.64;94.63;100633.40;105333;1271;75088;-77
2022/01/13 09:40:15;;;;;;;32.10;20.60;;;;;;;1.75;93.69;100624.76;105356;1271;69404;-78
2022/01/13 09:42:44;;;;;;;35.20;22.00;;;;;;;1.75;93.06;100619.67;105372;1271;73271;-78
2022/01/13 09:45:14;;;;;;;31.90;21.90;;;;;;;1.76;93.39;100620.91;105092;1274;61419;-77
2022/01/13 09:47:41;;;;;;;31.30;19.10;;;;;;;1.79;93.13;100618.27;105347;1271;61270;-78
2022/01/13 09:50:13;;;;;;;27.20;18.50;;;;;;;1.83;93.12;100619.99;105364;1271;73750;-79
2022/01/13 09:52:41;;;;;;;29.60;19.30;;;;;;;1.87;93.23;100616.29;105121;1271;69857;-77
2022/01/13 09:55:09;;;;;;;28.40;19.20;;;;;;;1.95;93.24;100611.17;105363;1271;73488;-79
2022/01/13 09:57:41;;;;;;;31.80;20.90;;;;;;;2.02;92.94;100611.30;105327;1271;61262;-78
2022/01/13 10:00:08;;;;;;;31.50;20.70;;;;;;;2.09;92.86;100617.05;105324;1271;62678;-70
2022/01/13 10:02:35;;;;;;;31.60;20.10;;;;;;;2.17;92.67;100619.61;104975;1271;76185;-68
2022/01/13 10:05:04;;;;;;;33.00;20.00;;;;;;;2.19;92.43;100613.46;104818;1272;61230;-70
2022/01/13 10:07:37;;;;;;;31.40;20.00;;;;;;;2.20;92.44;100607.67;104965;1271;73201;-68
2022/01/13 10:10:13;;;;;;;29.20;19.00;;;;;;;2.21;92.05;100603.98;104973;1271;61269;-69
2022/01/13 10:12:45;;;;;;;32.20;18.80;;;;;;;2.20;92.02;100600.66;104563;1274;61181;-68
2022/01/13 10:17:59;;;;;;;30.30;18.20;;;;;;;2.24;92.15;100598.19;104814;1271;70556;-69
2022/01/13 10:20:26;;;;;;;31.00;19.10;;;;;;;2.30;92.06;100597.96;104803;1271;73453;-70
2022/01/13 10:22:54;;;;;;;32.60;21.50;;;;;;;2.36;91.71;100591.77;104909;1271;61513;-70
2022/01/13 10:25:25;;;;;;;30.20;21.00;;;;;;;2.41;91.57;100591.91;105009;1271;61354;-70
2022/01/13 10:27:52;;;;;;;35.00;22.70;;;;;;;2.44;91.21;100588.55;104818;1272;75404;-71
2022/01/13 10:30:22;;;;;;;29.10;20.40;;;;;;;2.47;91.55;100575.38;104944;1271;69519;-69
2022/01/13 10:32:48;;;;;;;32.00;20.00;;;;;;;2.54;91.63;100565.67;104512;1271;71783;-69
2022/01/13 10:35:19;;;;;;;28.30;20.00;;;;;;;2.61;91.16;100556.98;104651;1271;61443;-69
2022/01/13 10:37:56;;;;;;;33.20;21.60;;;;;;;2.66;90.45;100545.55;105025;1271;61119;-68
2022/01/13 10:40:29;;;;;;;31.10;20.10;;;;;;;2.68;90.53;100540.98;104820;1271;74909;-69
2022/01/13 10:45:35;;;;;;;32.50;21.90;;;;;;;2.74;90.04;100544.42;104854;1271;74490;-68
2022/01/13 10:48:12;;;;;;;32.50;21.00;;;;;;;2.82;90.32;100543.11;104822;1271;61439;-68
2022/01/13 10:50:45;;;;;;;30.60;19.70;;;;;;;2.91;90.21;100542.66;104842;1271;61256;-70
2022/01/13 10:53:22;;;;;;;31.10;21.00;;;;;;;2.97;90.29;100526.80;104863;1271;75361;-68
2022/01/13 10:55:53;;;;;;;30.80;20.60;;;;;;;2.98;89.76;100529.06;104857;1271;70127;-69
2022/01/13 10:58:26;;;;;;;28.40;19.60;;;;;;;2.96;89.84;100519.96;104882;1271;74228;-70
2022/01/13 11:00:54;;;;;;;31.90;20.80;;;;;;;2.97;90.05;100518.19;104876;1271;61243;-69
2022/01/13 11:03:23;;;;;;;31.20;20.80;;;;;;;2.97;89.67;100523.80;104860;1271;61847;-70
2022/01/13 11:05:50;;;;;;;31.30;20.00;;;;;;;2.95;89.79;100520.85;105203;1271;76693;-69
2022/01/13 11:08:41;;;;;;;32.60;20.30;;;;;;;2.93;89.69;100517.70;104921;1271;70353;-67
2022/01/13 11:11:18;;;;;;;32.10;20.70;;;;;;;2.96;90.02;100520.13;104894;1271;73223;-69
2022/01/13 11:13:56;;;;;;;30.40;21.40;;;;;;;2.99;90.17;100512.90;104677;1272;61198;-70
2022/01/13 11:16:24;;;;;;;26.40;17.90;;;;;;;3.02;90.11;100507.06;105006;1271;61314;-71
2022/01/13 11:18:51;;;;;;;27.20;17.80;;;;;;;3.03;89.89;100506.00;104884;1271;76436;-70
2022/01/13 11:21:18;;;;;;;29.40;20.80;;;;;;;3.06;89.85;100508.25;105160;1271;69031;-69
2022/01/13 11:23:49;;;;;;;30.90;19.50;;;;;;;3.10;89.86;100504.70;104839;1271;73224;-72
2022/01/13 11:26:16;;;;;;;28.80;18.00;;;;;;;3.14;89.65;100502.72;104848;1271;61344;-69
2022/01/13 11:28:44;;;;;;;33.20;21.00;;;;;;;3.14;89.33;100500.08;104856;1271;61280;-70